Time;durP1;ratioP1;P1;durP2;ratioP2;P2;SDS_P1;SDS_P2;PMS_P1;PMS_P2;Temp;Humidity;BMP_temperature;BMP_pressure;BME280_temperature;BME280_humidity;BME280_pressure;Samples;Min_cycle;Max_cycle;Signal;HPM_P1;HPM_P2
2023/09/26 00:01:28;;;;;;;10.25;5.82;;;;;;;12.50;100.00;101074.94;4968166;28;20054;-75
2023/09/26 00:03:58;;;;;;;10.38;5.90;;;;;;;12.46;100.00;101078.66;4979111;28;20061;-75
2023/09/26 00:06:28;;;;;;;6.97;5.70;;;;;;;12.45;100.00;101071.63;4974493;28;20520;-75
2023/09/26 00:08:56;;;;;;;7.05;6.00;;;;;;;12.44;100.00;101070.75;4973565;28;20542;-76
2023/09/26 00:11:28;;;;;;;6.45;5.40;;;;;;;12.44;100.00;101085.84;4974020;28;20061;-75
2023/09/26 00:13:59;;;;;;;8.07;5.82;;;;;;;12.46;100.00;101076.00;4978880;28;20039;-76
2023/09/26 00:16:31;;;;;;;6.70;5.07;;;;;;;12.46;100.00;101078.66;4972692;28;20558;-75
2023/09/26 00:18:59;;;;;;;7.85;5.38;;;;;;;12.43;100.00;101062.88;4974060;28;20050;-75
2023/09/26 00:21:29;;;;;;;5.93;5.32;;;;;;;12.43;100.00;101065.53;4970985;28;20058;-76
2023/09/26 00:23:59;;;;;;;7.00;5.72;;;;;;;12.43;100.00;101063.75;4967350;28;20039;-76
2023/09/26 00:26:29;;;;;;;9.23;5.95;;;;;;;12.34;100.00;101050.00;4983193;28;20093;-76
2023/09/26 00:29:00;;;;;;;9.63;5.90;;;;;;;12.41;100.00;101054.13;4952070;28;20078;-74
2023/09/26 00:31:28;;;;;;;6.95;5.72;;;;;;;12.28;100.00;101049.31;4973045;28;20051;-75
2023/09/26 00:33:57;;;;;;;10.05;6.20;;;;;;;12.37;100.00;101076.41;4964819;28;20038;-75
2023/09/26 00:36:26;;;;;;;6.95;5.50;;;;;;;12.33;100.00;101077.47;4972225;28;20046;-75
2023/09/26 00:38:54;;;;;;;6.40;5.70;;;;;;;12.29;100.00;101071.44;4970560;28;20499;-74
2023/09/26 00:41:22;;;;;;;6.93;5.68;;;;;;;12.21;100.00;101074.44;4971781;28;20051;-75
2023/09/26 00:43:52;;;;;;;7.78;5.90;;;;;;;12.22;100.00;101068.19;4981918;28;20049;-74
2023/09/26 00:46:23;;;;;;;8.02;5.30;;;;;;;12.23;100.00;101077.88;4970452;28;20046;-75
2023/09/26 00:48:51;;;;;;;5.55;4.93;;;;;;;12.20;100.00;101077.16;4990801;28;20055;-75
2023/09/26 00:51:20;;;;;;;6.63;5.22;;;;;;;12.21;100.00;101074.44;4958340;28;20043;-74
2023/09/26 00:53:55;;;;;;;6.35;5.70;;;;;;;12.16;100.00;101060.47;4951586;28;20042;-75
2023/09/26 00:56:24;;;;;;;7.18;5.65;;;;;;;12.26;100.00;101083.06;4991358;28;20567;-74
2023/09/26 00:58:53;;;;;;;7.27;5.70;;;;;;;12.27;100.00;101076.84;4990269;28;20062;-73
2023/09/26 01:01:25;;;;;;;7.75;5.30;;;;;;;12.24;100.00;101071.66;4973040;28;20047;-74
2023/09/26 01:03:56;;;;;;;6.93;5.40;;;;;;;12.17;100.00;101053.38;4979292;28;20419;-75
2023/09/26 01:06:26;;;;;;;7.13;5.63;;;;;;;12.24;100.00;101073.44;4968831;28;20086;-75
2023/09/26 01:08:55;;;;;;;7.05;5.68;;;;;;;12.20;100.00;101072.69;4960630;28;20045;-75
2023/09/26 01:11:23;;;;;;;6.95;5.45;;;;;;;12.14;100.00;101078.25;4970444;28;20054;-76
2023/09/26 01:13:52;;;;;;;8.85;5.55;;;;;;;12.09;100.00;101074.09;4969962;28;20043;-75
2023/09/26 01:16:22;;;;;;;9.30;6.70;;;;;;;12.04;100.00;101071.63;4973568;28;20088;-74
2023/09/26 01:18:51;;;;;;;6.97;5.43;;;;;;;12.00;100.00;101067.38;4971045;28;20486;-75
2023/09/26 01:21:19;;;;;;;7.97;5.85;;;;;;;11.96;100.00;101062.28;4975718;28;20106;-75
2023/09/26 01:23:54;;;;;;;8.15;5.80;;;;;;;11.87;100.00;101055.53;4976199;28;20043;-75
2023/09/26 01:26:25;;;;;;;8.00;5.65;;;;;;;11.91;100.00;101065.97;4996917;28;20066;-74
2023/09/26 01:28:52;;;;;;;6.70;6.00;;;;;;;11.81;100.00;101059.31;4987417;28;20126;-74
2023/09/26 01:31:21;;;;;;;7.72;5.72;;;;;;;11.89;100.00;101067.81;4980189;28;20123;-76
2023/09/26 01:33:49;;;;;;;6.25;5.55;;;;;;;11.87;100.00;101056.41;4969608;28;20070;-76
2023/09/26 01:36:17;;;;;;;9.57;5.95;;;;;;;11.83;100.00;101061.91;4976152;28;20049;-76
2023/09/26 01:38:46;;;;;;;7.28;5.60;;;;;;;11.80;100.00;101054.97;4958383;28;20105;-76
2023/09/26 01:41:15;;;;;;;6.75;5.70;;;;;;;11.76;100.00;101057.78;4974494;28;20047;-75
2023/09/26 01:43:44;;;;;;;7.43;6.10;;;;;;;11.77;100.00;101051.56;4961192;28;20050;-76
2023/09/26 01:46:14;;;;;;;8.90;6.70;;;;;;;11.76;100.00;101055.13;4980805;28;20061;-76
2023/09/26 01:48:45;;;;;;;7.60;5.97;;;;;;;11.76;100.00;101055.13;4979031;28;20675;-75
2023/09/26 01:51:14;;;;;;;7.88;6.05;;;;;;;11.72;100.00;101058.78;4975378;28;20050;-76
2023/09/26 01:53:43;;;;;;;8.37;6.80;;;;;;;11.68;100.00;101052.75;4997874;28;20070;-75
2023/09/26 01:56:11;;;;;;;7.93;6.22;;;;;;;11.65;100.00;101044.06;4975250;28;20053;-75
2023/09/26 01:58:41;;;;;;;8.90;6.43;;;;;;;11.64;100.00;101050.31;4991029;28;20122;-76
2023/09/26 02:01:11;;;;;;;8.98;6.07;;;;;;;11.60;100.00;101052.22;4987159;28;20054;-74
2023/09/26 02:03:39;;;;;;;9.73;6.85;;;;;;;11.58;100.00;101046.97;4999853;28;20509;-76
2023/09/26 02:06:07;;;;;;;8.63;6.30;;;;;;;11.58;100.00;101052.28;5002896;28;20110;-76
2023/09/26 02:08:36;;;;;;;9.52;6.85;;;;;;;11.55;100.00;101041.78;4993767;28;20081;-77
2023/09/26 02:11:07;;;;;;;7.13;6.20;;;;;;;11.56;100.00;101054.13;5010479;28;20038;-75
2023/09/26 02:13:36;;;;;;;7.32;6.60;;;;;;;11.54;100.00;101039.19;4992333;28;20131;-76
2023/09/26 02:16:11;;;;;;;;;;;;;;;11.52;100.00;101052.50;4982307;28;20054;-74
2023/09/26 02:18:39;;;;;;;7.38;6.20;;;;;;;11.46;100.00;101051.91;5007289;28;19988;-75
2023/09/26 02:21:16;;;;;;;7.97;6.45;;;;;;;11.45;100.00;101048.41;4996959;28;20570;-75
2023/09/26 02:23:45;;;;;;;9.20;7.10;;;;;;;11.44;100.00;101049.31;4998211;28;20526;-77
2023/09/26 02:26:18;;;;;;;7.53;6.60;;;;;;;11.44;100.00;101051.97;4988227;28;20106;-78
2023/09/26 02:28:46;;;;;;;9.60;7.18;;;;;;;11.46;100.00;101052.78;4991093;28;20050;-75
2023/09/26 02:31:19;;;;;;;9.35;7.07;;;;;;;11.39;100.00;101051.28;4995903;28;20058;-75
2023/09/26 02:33:47;;;;;;;9.95;7.00;;;;;;;11.29;100.00;101039.31;4960018;28;20034;-75
2023/09/26 02:36:15;;;;;;;9.02;7.30;;;;;;;11.33;100.00;101042.72;4997713;28;20084;-74
2023/09/26 02:38:45;;;;;;;7.95;6.95;;;;;;;11.38;100.00;101038.06;4989864;28;21285;-74
2023/09/26 02:41:14;;;;;;;;;;;;;;;11.38;100.00;101038.94;5017704;28;20046;-74
2023/09/26 02:43:45;;;;;;;7.07;6.35;;;;;;;11.29;100.00;101022.56;4983302;28;19940;-75
2023/09/26 02:46:14;;;;;;;8.93;6.32;;;;;;;11.33;100.00;101027.69;4989974;28;20052;-75
2023/09/26 02:48:46;;;;;;;7.55;6.47;;;;;;;11.27;100.00;101030.56;4997418;28;20053;-75
2023/09/26 02:51:14;;;;;;;11.25;7.20;;;;;;;11.18;100.00;101018.50;4988540;28;20046;-76
2023/09/26 02:53:49;;;;;;;9.85;6.68;;;;;;;11.13;100.00;101009.03;4991034;28;20129;-74
2023/09/26 02:56:25;;;;;;;8.02;7.18;;;;;;;11.20;100.00;101021.09;4991273;28;20054;-75
2023/09/26 02:58:53;;;;;;;8.43;7.50;;;;;;;11.10;100.00;101003.84;4990291;28;20034;-75
2023/09/26 03:01:21;;;;;;;8.93;7.43;;;;;;;11.18;100.00;101020.31;4988925;28;20057;-76
2023/09/26 03:03:53;;;;;;;8.93;7.35;;;;;;;11.11;100.00;101002.94;4979668;28;20557;-75
2023/09/26 03:06:23;;;;;;;10.30;6.70;;;;;;;11.13;100.00;101017.00;4989849;28;20114;-75
2023/09/26 03:08:51;;;;;;;8.57;7.18;;;;;;;11.08;100.00;101018.94;4978026;28;20039;-76
2023/09/26 03:11:19;;;;;;;7.70;6.40;;;;;;;11.08;100.00;101029.56;4977239;28;20124;-75
2023/09/26 03:13:47;;;;;;;9.68;7.50;;;;;;;11.00;100.00;101021.91;4982037;28;20642;-76
2023/09/26 03:16:18;;;;;;;10.32;7.32;;;;;;;10.96;100.00;101014.13;4983644;28;20105;-77
2023/09/26 03:18:53;;;;;;;8.13;6.85;;;;;;;10.97;100.00;101026.47;4974784;28;20054;-76
2023/09/26 03:21:22;;;;;;;9.45;6.90;;;;;;;10.92;100.00;101021.31;4993866;28;20046;-75
2023/09/26 03:23:51;;;;;;;10.43;7.97;;;;;;;10.89;100.00;101011.72;5006497;28;20051;-75
2023/09/26 03:26:19;;;;;;;9.25;7.63;;;;;;;10.87;100.00;101015.34;4986570;28;20038;-74
2023/09/26 03:28:47;;;;;;;9.32;7.80;;;;;;;10.83;100.00;101014.63;4986460;28;20455;-74
2023/09/26 03:31:15;;;;;;;9.00;7.50;;;;;;;10.84;100.00;101023.44;4962305;28;20050;-76
2023/09/26 03:33:44;;;;;;;9.25;7.30;;;;;;;10.88;100.00;101017.06;4959756;28;20265;-75
2023/09/26 03:36:14;;;;;;;10.27;7.10;;;;;;;10.85;100.00;101023.38;4968471;28;20104;-74
2023/09/26 03:38:43;;;;;;;13.43;8.40;;;;;;;10.78;100.00;101016.56;4980307;28;20047;-75
2023/09/26 03:41:11;;;;;;;11.23;7.82;;;;;;;10.74;100.00;101008.78;4981943;28;20494;-75
2023/09/26 03:43:39;;;;;;;10.88;8.18;;;;;;;10.71;100.00;101015.06;4976439;28;20046;-78
2023/09/26 03:46:09;;;;;;;10.05;8.07;;;;;;;10.67;100.00;101017.91;4984442;28;20058;-74
2023/09/26 03:48:37;;;;;;;9.17;8.03;;;;;;;10.62;100.00;101020.69;4990060;28;20116;-75
2023/09/26 03:51:14;;;;;;;9.30;8.05;;;;;;;10.63;100.00;101024.22;4976366;28;20400;-74
2023/09/26 03:53:50;;;;;;;10.13;8.27;;;;;;;10.67;100.00;101023.19;4982648;28;20418;-75
2023/09/26 03:56:20;;;;;;;9.70;8.32;;;;;;;10.64;100.00;101012.72;4985246;28;20050;-73
2023/09/26 03:58:48;;;;;;;11.27;9.07;;;;;;;10.65;100.00;101030.31;4994659;28;20065;-75
2023/09/26 04:01:17;;;;;;;10.55;9.00;;;;;;;10.58;100.00;101015.56;4973564;28;20038;-74
2023/09/26 04:03:49;;;;;;;9.10;8.18;;;;;;;10.60;100.00;101024.31;4974094;28;20061;-74
2023/09/26 04:06:18;;;;;;;11.77;8.40;;;;;;;10.62;100.00;101025.13;5002074;28;20050;-75
2023/09/26 04:08:47;;;;;;;10.32;9.15;;;;;;;10.61;100.00;101005.72;4988452;28;20058;-75
2023/09/26 04:11:17;;;;;;;11.27;9.02;;;;;;;10.56;100.00;101010.31;4994208;28;20050;-75
2023/09/26 04:13:46;;;;;;;10.50;8.90;;;;;;;10.55;100.00;101012.09;4977773;28;20047;-75
2023/09/26 04:16:17;;;;;;;10.55;8.93;;;;;;;10.56;100.00;101015.63;4968179;28;20054;-76
2023/09/26 04:18:46;;;;;;;9.95;8.85;;;;;;;10.58;100.00;101002.31;4980490;28;20073;-76
2023/09/26 04:21:16;;;;;;;12.50;9.15;;;;;;;10.65;100.00;100996.75;4995662;28;20038;-74
2023/09/26 04:23:44;;;;;;;9.98;8.70;;;;;;;10.70;100.00;101000.09;4975204;28;20094;-76
2023/09/26 04:26:15;;;;;;;9.50;8.30;;;;;;;10.73;100.00;101007.91;4984268;28;20730;-75
2023/09/26 04:28:43;;;;;;;;;;;;;;;10.76;100.00;100999.84;4982072;28;20050;-76
2023/09/26 04:31:16;;;;;;;10.88;8.18;;;;;;;10.81;100.00;101007.63;4989629;28;19932;-76
2023/09/26 04:33:48;;;;;;;10.15;8.43;;;;;;;10.76;100.00;101006.94;4975456;28;20097;-75
2023/09/26 04:36:21;;;;;;;10.18;8.20;;;;;;;10.73;100.00;101007.91;4968804;28;20149;-76
2023/09/26 04:38:51;;;;;;;10.45;8.50;;;;;;;10.71;100.00;101004.44;4992766;28;20056;-75
2023/09/26 04:41:20;;;;;;;9.52;8.10;;;;;;;10.69;100.00;101000.16;4992460;28;20042;-76
2023/09/26 04:43:50;;;;;;;11.02;9.10;;;;;;;10.68;100.00;101009.03;4995555;28;20046;-76
2023/09/26 04:46:19;;;;;;;11.80;8.88;;;;;;;10.63;100.00;101006.53;4951107;28;20054;-77
2023/09/26 04:48:47;;;;;;;11.48;9.38;;;;;;;10.59;100.00;101015.50;4969363;28;20054;-76
2023/09/26 04:51:17;;;;;;;10.93;9.43;;;;;;;10.58;100.00;101005.84;4961697;28;20101;-76
2023/09/26 04:53:48;;;;;;;10.02;9.00;;;;;;;10.53;100.00;101000.75;4980087;28;20065;-76
2023/09/26 04:56:16;;;;;;;10.90;9.25;;;;;;;10.51;100.00;101007.00;4984609;28;20078;-76
2023/09/26 04:58:47;;;;;;;11.52;10.10;;;;;;;10.43;100.00;101009.06;4991226;28;20054;-76
2023/09/26 05:01:16;;;;;;;10.77;9.65;;;;;;;10.36;100.00;101003.13;4989236;28;20057;-76
2023/09/26 05:03:51;;;;;;;10.98;9.65;;;;;;;10.38;100.00;101005.72;4979540;28;20378;-75
2023/09/26 05:06:19;;;;;;;12.35;9.27;;;;;;;10.35;100.00;101012.00;4967922;28;20042;-75
2023/09/26 05:08:48;;;;;;;15.10;10.52;;;;;;;10.36;100.00;101012.88;4992618;28;20035;-75
2023/09/26 05:11:17;;;;;;;26.38;19.13;;;;;;;10.34;100.00;101014.69;4990673;28;20046;-74
2023/09/26 05:13:46;;;;;;;11.40;9.88;;;;;;;10.31;100.00;101017.44;4993720;28;20046;-75
2023/09/26 05:16:15;;;;;;;17.17;10.50;;;;;;;10.30;100.00;101015.72;4983989;28;20084;-75
2023/09/26 05:18:46;;;;;;;11.50;9.52;;;;;;;10.27;100.00;101018.47;4976120;28;20047;-75
2023/09/26 05:21:14;;;;;;;11.82;9.32;;;;;;;10.28;100.00;101020.19;4976053;28;20047;-74
2023/09/26 05:23:43;;;;;;;10.82;9.27;;;;;;;10.29;100.00;101022.78;4998754;28;20072;-75
2023/09/26 05:26:14;;;;;;;11.57;9.77;;;;;;;10.28;100.00;101013.13;5001676;28;20045;-75
2023/09/26 05:28:41;;;;;;;11.85;9.07;;;;;;;10.33;100.00;101020.91;4975289;28;20051;-77
2023/09/26 05:31:12;;;;;;;11.27;9.45;;;;;;;10.31;100.00;101020.97;4977711;28;20062;-77
2023/09/26 05:33:43;;;;;;;13.05;9.40;;;;;;;10.36;100.00;101026.97;4974473;28;20109;-76
2023/09/26 05:36:12;;;;;;;12.68;9.57;;;;;;;10.37;100.00;101027.84;4939881;28;20060;-75
2023/09/26 05:38:54;;;;;;;12.77;9.88;;;;;;;10.37;100.00;101028.69;4979537;28;20043;-76
2023/09/26 05:41:26;;;;;;;13.98;10.15;;;;;;;10.39;100.00;101028.66;4983982;28;20093;-75
2023/09/26 05:43:59;;;;;;;11.88;9.90;;;;;;;10.37;100.00;101012.81;4949526;28;20069;-77
2023/09/26 05:46:33;;;;;;;15.40;10.20;;;;;;;10.40;100.00;101025.91;4971346;28;20061;-76
2023/09/26 05:49:03;;;;;;;14.43;10.13;;;;;;;10.35;100.00;101019.06;4993897;28;22826;-77
2023/09/26 05:51:37;;;;;;;14.07;10.15;;;;;;;10.41;100.00;101026.78;4983920;28;20062;-74
2023/09/26 05:54:05;;;;;;;12.13;9.30;;;;;;;10.42;100.00;101028.50;4982555;28;20049;-77
2023/09/26 05:56:56;;;;;;;12.23;10.02;;;;;;;10.45;100.00;101031.06;4984965;28;20150;-77
2023/09/26 05:59:28;;;;;;;11.45;9.70;;;;;;;10.47;100.00;101031.88;4996172;28;20046;-76
2023/09/26 06:02:02;;;;;;;12.40;10.00;;;;;;;10.50;100.00;101034.41;4977782;28;20438;-75
2023/09/26 06:04:31;;;;;;;12.23;10.30;;;;;;;10.50;100.00;101026.47;4985457;28;20050;-75
2023/09/26 06:07:02;;;;;;;12.00;9.77;;;;;;;10.53;100.00;101029.88;4972820;28;20146;-75
2023/09/26 06:09:30;;;;;;;12.75;9.98;;;;;;;10.61;100.00;101034.88;4993265;28;20045;-75
2023/09/26 06:11:59;;;;;;;12.70;10.00;;;;;;;10.58;100.00;101034.97;4974915;28;20273;-75
2023/09/26 06:14:31;;;;;;;11.60;9.18;;;;;;;10.68;100.00;101030.22;4962978;28;20050;-76
2023/09/26 06:17:01;;;;;;;11.80;9.75;;;;;;;10.76;100.00;101033.44;4958724;28;20066;-77
2023/09/26 06:19:33;;;;;;;13.85;10.05;;;;;;;10.81;100.00;101037.66;4976123;28;20453;-76
2023/09/26 06:22:01;;;;;;;12.10;9.60;;;;;;;10.87;100.00;101036.53;4998204;28;20104;-75
2023/09/26 06:24:37;;;;;;;13.70;9.27;;;;;;;10.90;100.00;101034.63;4988946;28;20081;-76
2023/09/26 06:27:07;;;;;;;12.73;9.50;;;;;;;11.00;100.00;101043.13;4954188;28;20566;-76
2023/09/26 06:29:38;;;;;;;16.20;9.40;;;;;;;11.07;100.00;101041.06;4968417;28;20035;-75
2023/09/26 06:32:08;;;;;;;11.25;9.30;;;;;;;11.13;100.00;101038.19;4994554;28;20069;-77
2023/09/26 06:34:44;;;;;;;13.98;9.43;;;;;;;11.32;100.00;101041.00;4964281;28;20089;-76
2023/09/26 06:37:14;;;;;;;11.80;8.95;;;;;;;11.44;100.00;101040.50;4968869;28;20047;-78
2023/09/26 06:39:43;;;;;;;10.23;8.50;;;;;;;11.47;100.00;101027.97;4974156;28;21010;-78
2023/09/26 06:42:14;;;;;;;9.27;7.75;;;;;;;11.71;100.00;101039.38;4990052;28;20407;-75
2023/09/26 06:44:43;;;;;;;11.88;8.40;;;;;;;11.85;100.00;101023.75;4972327;28;20046;-76
2023/09/26 06:47:16;;;;;;;13.27;7.63;;;;;;;11.98;100.00;101029.41;4966919;28;20058;-76
2023/09/26 06:49:49;;;;;;;8.77;7.38;;;;;;;12.26;100.00;101032.63;4957611;28;20089;-76
2023/09/26 06:52:22;;;;;;;8.75;7.85;;;;;;;12.50;100.00;101032.44;4968054;28;20043;-75
2023/09/26 06:54:51;;;;;;;;;;;;;;;12.77;100.00;101025.88;4970350;28;20123;-76
2023/09/26 06:57:26;;;;;;;9.88;7.38;;;;;;;12.93;100.00;101013.59;4967149;28;20610;-76
2023/09/26 06:59:57;;;;;;;10.68;6.50;;;;;;;13.41;100.00;101033.50;4968750;28;20042;-76
2023/09/26 07:02:26;;;;;;;12.43;7.13;;;;;;;13.69;100.00;101033.03;4958764;28;20074;-77
2023/09/26 07:04:56;;;;;;;10.32;6.93;;;;;;;13.93;100.00;101029.13;4970361;28;20046;-75
2023/09/26 07:07:30;;;;;;;9.13;6.95;;;;;;;14.12;100.00;101018.41;4963918;28;20061;-74
2023/09/26 07:09:59;;;;;;;9.90;6.65;;;;;;;14.38;100.00;101027.69;4975269;28;20042;-76
2023/09/26 07:12:30;;;;;;;9.95;7.30;;;;;;;14.61;100.00;101026.50;4961880;28;20133;-75
2023/09/26 07:15:00;;;;;;;10.32;6.82;;;;;;;14.69;100.00;101006.47;4973928;28;20093;-74
2023/09/26 07:17:31;;;;;;;9.87;6.50;;;;;;;14.94;100.00;101026.50;4970688;28;20058;-76
2023/09/26 07:20:15;;;;;;;12.93;6.20;;;;;;;15.08;100.00;101027.44;4958566;28;20050;-76
2023/09/26 07:22:45;;;;;;;7.85;6.68;;;;;;;15.21;100.00;101006.28;4971204;28;20090;-77
2023/09/26 07:25:15;;;;;;;7.25;5.97;;;;;;;15.35;100.00;101021.50;4980446;28;20051;-75
2023/09/26 07:27:43;;;;;;;7.95;6.47;;;;;;;15.45;100.00;101023.53;4939916;28;20055;-76
2023/09/26 07:30:15;;;;;;;7.70;5.97;;;;;;;15.55;100.00;101015.03;4975358;28;20035;-78
2023/09/26 07:35:56;;;;;;;7.70;5.70;;;;;;;15.74;100.00;101007.72;4989605;28;20039;-80
2023/09/26 07:38:49;;;;;;;7.40;6.03;;;;;;;15.87;100.00;101007.84;4978208;28;20560;-75
2023/09/26 07:41:24;;;;;;;6.95;6.25;;;;;;;16.18;100.00;101021.09;4976389;28;20065;-76
2023/09/26 07:43:57;;;;;;;8.23;5.57;;;;;;;16.23;100.00;101000.28;4967686;28;20082;-75
2023/09/26 07:46:29;;;;;;;7.95;5.60;;;;;;;16.34;100.00;100997.81;4991876;28;20054;-76
2023/09/26 07:49:01;;;;;;;7.32;5.57;;;;;;;16.53;100.00;101026.09;4984724;28;20074;-76
2023/09/26 07:51:32;;;;;;;10.02;4.90;;;;;;;16.57;100.00;101006.22;4978293;28;20109;-77
2023/09/26 07:54:00;;;;;;;;;;;;;;;16.86;100.00;101017.78;4983640;28;20051;-76
2023/09/26 07:56:28;;;;;;;6.72;5.40;;;;;;;17.06;100.00;101017.41;4991881;28;19936;-78
2023/09/26 07:58:57;;;;;;;6.25;4.90;;;;;;;17.08;100.00;101018.16;4963306;28;20043;-76
2023/09/26 08:01:25;;;;;;;6.63;5.07;;;;;;;17.13;100.00;101022.28;4980279;28;20566;-75
2023/09/26 08:03:56;;;;;;;8.00;5.07;;;;;;;17.12;100.00;101019.69;4967887;28;20093;-76
2023/09/26 08:06:25;;;;;;;7.57;5.07;;;;;;;16.99;100.00;101011.59;4949084;28;20081;-75
2023/09/26 08:08:54;;;;;;;8.45;4.80;;;;;;;17.00;100.00;101023.16;4963263;28;20047;-75
2023/09/26 08:11:27;;;;;;;6.32;4.80;;;;;;;16.99;100.00;101027.66;4980871;28;20042;-75
2023/09/26 08:13:56;;;;;;;5.70;4.20;;;;;;;17.12;100.00;101020.56;4956457;28;20086;-75
2023/09/26 08:16:24;;;;;;;5.35;4.40;;;;;;;17.13;100.00;101000.00;4949055;28;20057;-77
2023/09/26 08:18:52;;;;;;;5.95;4.28;;;;;;;17.45;100.00;101014.81;4963863;28;20082;-74
2023/09/26 08:21:21;;;;;;;14.38;4.15;;;;;;;17.71;100.00;101014.94;4969752;28;20451;-77
2023/09/26 08:23:50;;;;;;;5.57;3.95;;;;;;;17.95;100.00;101017.78;4969518;28;20053;-74
2023/09/26 08:26:20;;;;;;;4.07;3.67;;;;;;;18.04;100.00;101007.31;4964883;28;20154;-77
2023/09/26 08:28:49;;;;;;;5.10;3.78;;;;;;;17.91;100.00;100981.47;4991639;28;20479;-76
2023/09/26 08:31:17;;;;;;;6.05;4.50;;;;;;;17.89;100.00;100997.63;4966560;28;20057;-75
2023/09/26 08:33:49;;;;;;;7.22;4.03;;;;;;;17.69;100.00;101006.16;4966811;28;20408;-75
2023/09/26 08:36:19;;;;;;;6.60;4.22;;;;;;;17.54;100.00;101006.19;4948406;28;20130;-75
2023/09/26 08:38:49;;;;;;;4.93;4.10;;;;;;;17.42;100.00;101004.31;4968357;28;20133;-74
2023/09/26 08:41:18;;;;;;;5.80;4.20;;;;;;;17.29;100.00;101002.53;4981826;28;20054;-75
2023/09/26 08:43:48;;;;;;;4.63;3.70;;;;;;;17.17;100.00;101004.19;4967269;28;20042;-76
2023/09/26 08:46:18;;;;;;;4.40;3.90;;;;;;;17.13;100.00;101006.22;4981620;28;20141;-76
2023/09/26 08:48:48;;;;;;;5.88;4.07;;;;;;;17.05;100.00;100988.91;4990275;28;20044;-76
2023/09/26 08:51:17;;;;;;;7.78;4.28;;;;;;;17.10;100.00;101001.06;4986624;28;20057;-75
2023/09/26 08:53:45;;;;;;;6.22;4.20;;;;;;;17.16;100.00;101010.47;4978358;28;20049;-74
2023/09/26 08:56:16;;;;;;;4.47;4.07;;;;;;;17.18;100.00;101004.06;4989038;28;20054;-74
2023/09/26 08:58:48;;;;;;;5.47;4.47;;;;;;;17.16;100.00;100995.28;4986443;28;20047;-74
2023/09/26 09:01:18;;;;;;;7.07;5.30;;;;;;;17.19;100.00;101007.63;4989584;28;20046;-74
2023/09/26 09:03:47;;;;;;;5.53;4.03;;;;;;;17.16;100.00;100989.94;4987238;28;20698;-75
2023/09/26 09:06:18;;;;;;;6.53;4.30;;;;;;;17.30;100.00;100993.56;4966167;28;20492;-76
2023/09/26 09:09:08;;;;;;;6.40;4.30;;;;;;;17.50;100.00;100993.06;4966329;28;20035;-76
2023/09/26 09:11:37;;;;;;;4.97;4.47;;;;;;;17.65;100.00;100988.56;4973802;28;20434;-75
2023/09/26 09:14:07;;;;;;;6.38;4.55;;;;;;;17.81;100.00;100992.78;4958306;28;20038;-74
2023/09/26 09:16:38;;;;;;;6.60;4.82;;;;;;;17.97;100.00;100989.91;4985042;28;20051;-74
2023/09/26 09:19:07;;;;;;;5.60;4.30;;;;;;;18.09;100.00;100986.41;4985865;28;20046;-75
2023/09/26 09:21:35;;;;;;;6.50;4.30;;;;;;;18.19;100.00;100984.81;4989291;28;20119;-75
2023/09/26 09:24:05;;;;;;;5.57;4.00;;;;;;;18.33;100.00;100974.94;4973913;28;20046;-74
2023/09/26 09:26:35;;;;;;;7.57;4.47;;;;;;;18.38;100.00;100962.09;4971538;28;20054;-75
2023/09/26 09:29:19;;;;;;;10.27;4.78;;;;;;;18.47;100.00;100977.50;4980738;28;20477;-75
2023/09/26 09:31:48;;;;;;;6.95;4.53;;;;;;;18.42;100.00;100967.09;4959204;28;20039;-78
2023/09/26 09:34:16;;;;;;;6.85;4.10;;;;;;;18.53;100.00;100961.00;4971414;28;20043;-76
2023/09/26 09:36:45;;;;;;;8.00;4.63;;;;;;;18.65;99.41;100968.19;4985947;28;20046;-78
2023/09/26 09:39:15;;;;;;;5.30;4.10;;;;;;;18.71;99.89;100965.09;4989776;28;20061;-74
2023/09/26 09:41:44;;;;;;;6.60;4.07;;;;;;;18.88;98.90;100963.88;4982011;28;20034;-74
2023/09/26 09:44:14;;;;;;;7.47;4.75;;;;;;;18.95;98.65;100961.59;4990582;28;20046;-75
2023/09/26 09:46:44;;;;;;;7.32;4.18;;;;;;;18.85;100.00;100956.03;4984953;28;20097;-77
2023/09/26 09:49:13;;;;;;;7.35;4.45;;;;;;;18.78;100.00;100944.03;4970173;28;20137;-74
2023/09/26 09:51:45;;;;;;;4.00;3.60;;;;;;;19.01;100.00;100955.78;4992811;28;20054;-75
2023/09/26 09:54:17;;;;;;;6.57;4.68;;;;;;;19.15;97.09;100953.78;4954213;28;20042;-74
2023/09/26 09:56:47;;;;;;;5.03;4.20;;;;;;;19.32;99.23;100951.69;4988803;28;20077;-75
2023/09/26 09:59:21;;;;;;;6.60;3.97;;;;;;;19.45;96.43;100947.97;4974697;28;20050;-75
2023/09/26 10:01:54;;;;;;;6.35;4.05;;;;;;;19.55;95.00;100946.31;4992459;28;22298;-76
2023/09/26 10:04:25;;;;;;;4.95;4.30;;;;;;;19.64;93.53;100943.91;4985747;28;20039;-76
2023/09/26 10:06:54;;;;;;;7.30;5.22;;;;;;;19.68;90.99;100940.00;4968701;28;20188;-76
2023/09/26 10:09:25;;;;;;;8.40;4.30;;;;;;;19.72;90.73;100936.97;4978858;28;20050;-75
2023/09/26 10:11:57;;;;;;;7.25;4.40;;;;;;;19.85;90.64;100943.13;4984118;28;20282;-74
2023/09/26 10:14:28;;;;;;;5.57;4.63;;;;;;;19.95;91.12;100949.50;4980933;28;20042;-74
2023/09/26 10:16:59;;;;;;;4.38;3.55;;;;;;;20.11;92.74;100943.81;4986054;28;20085;-73
2023/09/26 10:19:28;;;;;;;8.70;5.05;;;;;;;20.10;88.47;100941.22;4971192;28;20134;-74
2023/09/26 10:22:18;;;;;;;5.60;4.38;;;;;;;19.97;89.46;100925.22;4985830;28;20042;-74
2023/09/26 10:24:48;;;;;;;6.55;3.78;;;;;;;20.04;91.36;100934.50;4971756;28;20424;-73
2023/09/26 10:27:24;;;;;;;5.78;4.70;;;;;;;20.08;88.83;100918.97;4978972;28;20046;-73
2023/09/26 10:30:05;;;;;;;4.85;4.20;;;;;;;20.28;88.38;100934.41;4986394;28;20581;-75
2023/09/26 10:32:36;;;;;;;6.68;3.83;;;;;;;20.43;88.42;100924.31;4990663;28;20395;-73
2023/09/26 10:35:28;;;;;;;7.63;4.63;;;;;;;20.57;86.16;100924.06;4992202;28;20073;-74
2023/09/26 10:38:07;;;;;;;5.10;4.17;;;;;;;20.71;87.26;100922.94;4980568;28;20077;-76
2023/09/26 10:40:36;;;;;;;6.80;4.57;;;;;;;20.81;85.27;100923.91;4986457;28;20047;-74
2023/09/26 10:43:05;;;;;;;8.85;4.60;;;;;;;20.81;86.41;100910.44;4973718;28;20053;-74
2023/09/26 10:45:36;;;;;;;7.57;4.93;;;;;;;20.69;84.40;100912.28;4976254;28;20068;-74
2023/09/26 10:48:07;;;;;;;7.30;3.83;;;;;;;20.67;85.87;100903.50;4947861;28;20282;-78
2023/09/26 10:50:44;;;;;;;8.15;4.70;;;;;;;20.81;82.12;100905.91;4973148;28;20042;-76
2023/09/26 10:53:13;;;;;;;8.68;4.35;;;;;;;20.82;81.86;100898.69;4993345;28;20042;-78
2023/09/26 10:55:43;;;;;;;7.93;4.57;;;;;;;20.97;81.25;100903.66;4980385;28;20048;-78
2023/09/26 10:58:19;;;;;;;5.40;4.18;;;;;;;21.09;80.62;100896.44;5000892;28;20046;-76
2023/09/26 11:00:50;;;;;;;6.63;4.68;;;;;;;21.14;84.27;100904.13;4992760;28;20062;-76
2023/09/26 11:03:21;;;;;;;4.90;4.40;;;;;;;21.09;83.79;100899.13;4994093;28;20044;-77
2023/09/26 11:05:50;;;;;;;9.75;4.28;;;;;;;21.22;83.27;100899.00;4980879;28;20498;-80
2023/09/26 11:08:38;;;;;;;7.85;4.90;;;;;;;21.36;79.62;100896.00;4977415;28;20050;-77
2023/09/26 11:11:06;;;;;;;6.78;3.85;;;;;;;21.55;79.02;100898.84;4967926;28;20498;-75
2023/09/26 11:13:37;;;;;;;7.03;4.22;;;;;;;21.70;76.52;100891.31;4998038;28;20049;-77
2023/09/26 11:16:05;;;;;;;4.53;3.75;;;;;;;21.77;75.61;100892.47;4994968;28;20251;-81
2023/09/26 11:18:34;;;;;;;4.53;3.53;;;;;;;21.94;78.14;100891.88;4964750;28;20042;-78
2023/09/26 11:21:04;;;;;;;8.35;4.78;;;;;;;22.14;75.96;100892.88;4959171;28;20446;-78
2023/09/26 11:23:52;;;;;;;6.57;4.40;;;;;;;22.37;75.18;100890.84;4974420;28;20049;-79
2023/09/26 11:26:22;;;;;;;4.82;4.07;;;;;;;22.34;70.30;100883.03;4944246;28;20050;-77
2023/09/26 11:28:51;;;;;;;5.30;3.70;;;;;;;21.98;73.38;100870.88;4953418;28;20042;-79
2023/09/26 11:31:19;;;;;;;6.20;3.47;;;;;;;22.08;75.56;100877.22;4979995;28;20046;-77
2023/09/26 11:33:49;;;;;;;4.68;3.30;;;;;;;22.18;72.96;100878.13;4978561;28;20053;-76
2023/09/26 11:36:17;;;;;;;3.10;2.80;;;;;;;22.27;72.72;100877.31;4960763;28;20045;-75